sensor_id;sensor_type;location;lat;lon;timestamp;P1;durP1;ratioP1;P2;durP2;ratioP2
22282;SDS011;11310;51.528;21.204;2022-10-03T00:01:11;7.90;;;2.33;;
22282;SDS011;11310;51.528;21.204;2022-10-03T00:03:57;8.60;;;2.35;;
22282;SDS011;11310;51.528;21.204;2022-10-03T00:06:39;8.70;;;2.83;;
22282;SDS011;11310;51.528;21.204;2022-10-03T00:09:21;9.75;;;2.72;;
22282;SDS011;11310;51.528;21.204;2022-10-03T00:12:06;8.38;;;2.70;;
22282;SDS011;11310;51.528;21.204;2022-10-03T00:14:46;5.93;;;2.40;;
22282;SDS011;11310;51.528;21.204;2022-10-03T00:17:22;7.47;;;2.30;;
22282;SDS011;11310;51.528;21.204;2022-10-03T00:19:59;6.55;;;2.13;;
22282;SDS011;11310;51.528;21.204;2022-10-03T00:22:34;5.07;;;2.20;;
22282;SDS011;11310;51.528;21.204;2022-10-03T00:25:14;6.97;;;2.55;;
22282;SDS011;11310;51.528;21.204;2022-10-03T00:28:03;6.22;;;2.85;;
22282;SDS011;11310;51.528;21.204;2022-10-03T00:30:55;5.38;;;2.33;;
22282;SDS011;11310;51.528;21.204;2022-10-03T00:33:34;4.25;;;2.15;;
22282;SDS011;11310;51.528;21.204;2022-10-03T00:36:13;8.15;;;2.40;;
22282;SDS011;11310;51.528;21.204;2022-10-03T00:38:57;5.65;;;2.33;;
22282;SDS011;11310;51.528;21.204;2022-10-03T00:42:16;8.10;;;2.72;;
22282;SDS011;11310;51.528;21.204;2022-10-03T00:48:21;5.60;;;2.33;;
22282;SDS011;11310;51.528;21.204;2022-10-03T00:51:19;5.00;;;2.13;;
22282;SDS011;11310;51.528;21.204;2022-10-03T00:54:02;5.75;;;2.53;;
22282;SDS011;11310;51.528;21.204;2022-10-03T00:56:52;7.68;;;2.90;;
22282;SDS011;11310;51.528;21.204;2022-10-03T00:59:38;8.77;;;3.03;;
22282;SDS011;11310;51.528;21.204;2022-10-03T01:02:27;5.10;;;2.10;;
22282;SDS011;11310;51.528;21.204;2022-10-03T01:05:08;7.43;;;2.30;;
22282;SDS011;11310;51.528;21.204;2022-10-03T01:10:38;6.72;;;2.85;;
22282;SDS011;11310;51.528;21.204;2022-10-03T01:13:26;6.93;;;2.90;;
22282;SDS011;11310;51.528;21.204;2022-10-03T01:16:06;6.47;;;2.80;;
22282;SDS011;11310;51.528;21.204;2022-10-03T01:18:47;8.52;;;2.70;;
22282;SDS011;11310;51.528;21.204;2022-10-03T01:21:29;7.35;;;2.30;;
22282;SDS011;11310;51.528;21.204;2022-10-03T01:24:11;6.63;;;2.58;;
22282;SDS011;11310;51.528;21.204;2022-10-03T01:27:03;7.38;;;2.78;;
22282;SDS011;11310;51.528;21.204;2022-10-03T01:29:48;6.80;;;2.65;;
22282;SDS011;11310;51.528;21.204;2022-10-03T01:32:39;8.10;;;3.20;;
22282;SDS011;11310;51.528;21.204;2022-10-03T01:35:19;8.90;;;3.17;;
22282;SDS011;11310;51.528;21.204;2022-10-03T01:37:58;11.45;;;3.10;;
22282;SDS011;11310;51.528;21.204;2022-10-03T01:40:34;6.78;;;2.80;;
22282;SDS011;11310;51.528;21.204;2022-10-03T01:43:13;5.38;;;2.30;;
22282;SDS011;11310;51.528;21.204;2022-10-03T01:45:51;9.40;;;2.83;;
22282;SDS011;11310;51.528;21.204;2022-10-03T01:48:30;6.38;;;2.72;;
22282;SDS011;11310;51.528;21.204;2022-10-03T01:51:06;7.57;;;2.90;;
22282;SDS011;11310;51.528;21.204;2022-10-03T01:53:41;11.02;;;3.05;;
22282;SDS011;11310;51.528;21.204;2022-10-03T01:56:23;9.52;;;3.58;;
22282;SDS011;11310;51.528;21.204;2022-10-03T01:59:02;7.90;;;2.60;;
22282;SDS011;11310;51.528;21.204;2022-10-03T02:01:42;5.63;;;2.42;;
22282;SDS011;11310;51.528;21.204;2022-10-03T02:04:22;7.72;;;2.83;;
22282;SDS011;11310;51.528;21.204;2022-10-03T02:07:04;7.55;;;2.80;;
22282;SDS011;11310;51.528;21.204;2022-10-03T02:09:38;7.40;;;2.88;;
22282;SDS011;11310;51.528;21.204;2022-10-03T02:12:18;6.93;;;2.60;;
22282;SDS011;11310;51.528;21.204;2022-10-03T02:14:56;12.85;;;2.67;;
22282;SDS011;11310;51.528;21.204;2022-10-03T02:17:34;7.68;;;2.33;;
22282;SDS011;11310;51.528;21.204;2022-10-03T02:20:17;7.45;;;2.58;;
22282;SDS011;11310;51.528;21.204;2022-10-03T02:22:52;5.80;;;2.60;;
22282;SDS011;11310;51.528;21.204;2022-10-03T02:25:24;5.97;;;2.35;;
22282;SDS011;11310;51.528;21.204;2022-10-03T02:28:12;8.10;;;2.60;;
22282;SDS011;11310;51.528;21.204;2022-10-03T02:31:01;5.63;;;2.38;;
22282;SDS011;11310;51.528;21.204;2022-10-03T02:34:03;6.95;;;2.50;;
22282;SDS011;11310;51.528;21.204;2022-10-03T02:36:51;6.45;;;2.33;;
22282;SDS011;11310;51.528;21.204;2022-10-03T02:39:58;7.18;;;2.92;;
22282;SDS011;11310;51.528;21.204;2022-10-03T02:49:12;6.57;;;2.10;;
22282;SDS011;11310;51.528;21.204;2022-10-03T02:52:06;6.57;;;2.22;;
22282;SDS011;11310;51.528;21.204;2022-10-03T02:54:57;5.85;;;1.90;;
22282;SDS011;11310;51.528;21.204;2022-10-03T03:01:01;7.05;;;1.98;;
22282;SDS011;11310;51.528;21.204;2022-10-03T03:03:57;10.30;;;2.22;;
22282;SDS011;11310;51.528;21.204;2022-10-03T03:06:55;8.02;;;1.98;;
22282;SDS011;11310;51.528;21.204;2022-10-03T03:18:36;5.75;;;1.83;;
22282;SDS011;11310;51.528;21.204;2022-10-03T03:24:12;6.30;;;1.60;;
22282;SDS011;11310;51.528;21.204;2022-10-03T03:27:04;6.63;;;1.60;;
22282;SDS011;11310;51.528;21.204;2022-10-03T03:29:46;6.07;;;1.73;;
22282;SDS011;11310;51.528;21.204;2022-10-03T03:32:26;4.70;;;1.42;;
22282;SDS011;11310;51.528;21.204;2022-10-03T03:35:08;6.40;;;1.83;;
22282;SDS011;11310;51.528;21.204;2022-10-03T03:37:50;8.85;;;1.85;;
22282;SDS011;11310;51.528;21.204;2022-10-03T03:40:34;6.47;;;1.92;;
22282;SDS011;11310;51.528;21.204;2022-10-03T03:43:17;6.43;;;1.55;;
22282;SDS011;11310;51.528;21.204;2022-10-03T03:46:10;4.07;;;1.48;;
22282;SDS011;11310;51.528;21.204;2022-10-03T03:51:44;4.55;;;1.50;;
22282;SDS011;11310;51.528;21.204;2022-10-03T03:54:32;8.77;;;1.50;;
22282;SDS011;11310;51.528;21.204;2022-10-03T03:57:25;6.22;;;1.58;;
22282;SDS011;11310;51.528;21.204;2022-10-03T04:00:06;5.05;;;1.75;;
22282;SDS011;11310;51.528;21.204;2022-10-03T04:02:44;5.47;;;1.60;;
22282;SDS011;11310;51.528;21.204;2022-10-03T04:05:39;2.00;;;1.13;;
22282;SDS011;11310;51.528;21.204;2022-10-03T04:08:25;5.05;;;1.40;;
22282;SDS011;11310;51.528;21.204;2022-10-03T04:11:17;4.57;;;1.20;;
22282;SDS011;11310;51.528;21.204;2022-10-03T04:14:05;4.25;;;1.58;;
22282;SDS011;11310;51.528;21.204;2022-10-03T04:16:50;4.88;;;1.73;;
22282;SDS011;11310;51.528;21.204;2022-10-03T04:19:55;5.15;;;1.50;;
22282;SDS011;11310;51.528;21.204;2022-10-03T04:22:39;4.10;;;1.35;;
22282;SDS011;11310;51.528;21.204;2022-10-03T04:25:43;6.07;;;1.60;;
22282;SDS011;11310;51.528;21.204;2022-10-03T04:31:27;6.82;;;1.73;;
22282;SDS011;11310;51.528;21.204;2022-10-03T04:34:13;5.13;;;1.58;;
22282;SDS011;11310;51.528;21.204;2022-10-03T04:37:02;6.53;;;1.27;;
22282;SDS011;11310;51.528;21.204;2022-10-03T04:39:44;2.93;;;1.30;;
22282;SDS011;11310;51.528;21.204;2022-10-03T04:42:23;5.78;;;1.58;;
22282;SDS011;11310;51.528;21.204;2022-10-03T04:48:08;5.65;;;1.50;;
22282;SDS011;11310;51.528;21.204;2022-10-03T04:50:43;4.10;;;1.42;;
22282;SDS011;11310;51.528;21.204;2022-10-03T04:53:27;5.35;;;1.52;;
22282;SDS011;11310;51.528;21.204;2022-10-03T04:56:20;3.75;;;1.33;;
22282;SDS011;11310;51.528;21.204;2022-10-03T04:59:01;4.72;;;1.45;;
22282;SDS011;11310;51.528;21.204;2022-10-03T05:01:39;3.40;;;1.48;;
22282;SDS011;11310;51.528;21.204;2022-10-03T05:04:23;3.53;;;1.27;;
22282;SDS011;11310;51.528;21.204;2022-10-03T05:06:58;5.97;;;1.60;;
22282;SDS011;11310;51.528;21.204;2022-10-03T05:09:36;1.80;;;1.02;;
22282;SDS011;11310;51.528;21.204;2022-10-03T05:12:13;8.65;;;1.60;;
22282;SDS011;11310;51.528;21.204;2022-10-03T05:14:55;2.10;;;1.13;;
22282;SDS011;11310;51.528;21.204;2022-10-03T05:17:32;3.80;;;1.48;;
22282;SDS011;11310;51.528;21.204;2022-10-03T05:20:23;5.68;;;1.38;;
22282;SDS011;11310;51.528;21.204;2022-10-03T05:23:09;4.18;;;1.38;;
22282;SDS011;11310;51.528;21.204;2022-10-03T05:25:47;6.60;;;1.35;;
22282;SDS011;11310;51.528;21.204;2022-10-03T05:28:38;9.47;;;1.67;;
22282;SDS011;11310;51.528;21.204;2022-10-03T05:31:23;6.43;;;1.55;;
22282;SDS011;11310;51.528;21.204;2022-10-03T05:34:03;9.00;;;1.40;;
22282;SDS011;11310;51.528;21.204;2022-10-03T05:36:52;5.20;;;1.50;;
22282;SDS011;11310;51.528;21.204;2022-10-03T05:39:37;3.55;;;1.40;;
22282;SDS011;11310;51.528;21.204;2022-10-03T05:42:22;6.90;;;1.25;;
22282;SDS011;11310;51.528;21.204;2022-10-03T05:45:05;3.97;;;1.35;;
22282;SDS011;11310;51.528;21.204;2022-10-03T05:47:51;5.15;;;1.30;;
22282;SDS011;11310;51.528;21.204;2022-10-03T05:50:30;5.05;;;1.42;;
22282;SDS011;11310;51.528;21.204;2022-10-03T05:55:58;5.35;;;1.35;;
22282;SDS011;11310;51.528;21.204;2022-10-03T05:58:37;3.33;;;1.25;;
22282;SDS011;11310;51.528;21.204;2022-10-03T06:01:46;10.88;;;1.60;;
22282;SDS011;11310;51.528;21.204;2022-10-03T06:04:38;2.90;;;1.60;;
22282;SDS011;11310;51.528;21.204;2022-10-03T06:12:58;4.03;;;1.48;;
22282;SDS011;11310;51.528;21.204;2022-10-03T06:18:32;3.97;;;1.60;;
22282;SDS011;11310;51.528;21.204;2022-10-03T06:21:26;4.93;;;1.40;;
22282;SDS011;11310;51.528;21.204;2022-10-03T06:24:29;4.65;;;1.60;;
22282;SDS011;11310;51.528;21.204;2022-10-03T06:30:34;5.70;;;1.83;;
22282;SDS011;11310;51.528;21.204;2022-10-03T06:33:28;4.75;;;1.30;;
22282;SDS011;11310;51.528;21.204;2022-10-03T06:36:29;4.00;;;1.38;;
22282;SDS011;11310;51.528;21.204;2022-10-03T06:39:30;6.68;;;1.10;;
22282;SDS011;11310;51.528;21.204;2022-10-03T06:42:28;4.22;;;0.95;;
22282;SDS011;11310;51.528;21.204;2022-10-03T06:48:30;3.78;;;1.20;;
22282;SDS011;11310;51.528;21.204;2022-10-03T06:51:30;5.43;;;1.08;;
22282;SDS011;11310;51.528;21.204;2022-10-03T06:57:47;3.95;;;1.27;;
22282;SDS011;11310;51.528;21.204;2022-10-03T07:00:40;3.53;;;1.48;;
22282;SDS011;11310;51.528;21.204;2022-10-03T07:03:26;5.45;;;1.67;;
22282;SDS011;11310;51.528;21.204;2022-10-03T07:06:28;3.85;;;1.10;;
22282;SDS011;11310;51.528;21.204;2022-10-03T07:15:42;3.85;;;1.10;;
22282;SDS011;11310;51.528;21.204;2022-10-03T07:18:58;3.97;;;1.30;;
22282;SDS011;11310;51.528;21.204;2022-10-03T07:25:09;11.75;;;1.30;;
22282;SDS011;11310;51.528;21.204;2022-10-03T07:27:55;5.20;;;1.50;;
22282;SDS011;11310;51.528;21.204;2022-10-03T07:30:45;3.75;;;1.08;;
22282;SDS011;11310;51.528;21.204;2022-10-03T07:33:32;2.55;;;1.17;;
22282;SDS011;11310;51.528;21.204;2022-10-03T07:36:31;6.30;;;1.42;;
22282;SDS011;11310;51.528;21.204;2022-10-03T07:39:38;3.17;;;1.20;;
22282;SDS011;11310;51.528;21.204;2022-10-03T07:42:35;4.00;;;1.23;;
22282;SDS011;11310;51.528;21.204;2022-10-03T07:45:31;3.03;;;0.80;;
22282;SDS011;11310;51.528;21.204;2022-10-03T07:48:09;3.72;;;1.35;;
22282;SDS011;11310;51.528;21.204;2022-10-03T07:51:03;4.18;;;1.67;;
22282;SDS011;11310;51.528;21.204;2022-10-03T08:00:03;6.10;;;1.40;;
22282;SDS011;11310;51.528;21.204;2022-10-03T08:05:49;3.13;;;0.93;;
22282;SDS011;11310;51.528;21.204;2022-10-03T08:08:45;5.18;;;1.40;;
22282;SDS011;11310;51.528;21.204;2022-10-03T08:11:47;3.50;;;1.13;;
22282;SDS011;11310;51.528;21.204;2022-10-03T08:14:47;4.07;;;1.10;;
22282;SDS011;11310;51.528;21.204;2022-10-03T08:20:35;2.78;;;0.82;;
22282;SDS011;11310;51.528;21.204;2022-10-03T08:23:16;4.18;;;1.13;;
22282;SDS011;11310;51.528;21.204;2022-10-03T08:26:03;3.78;;;1.02;;
22282;SDS011;11310;51.528;21.204;2022-10-03T08:28:51;1.83;;;0.93;;
22282;SDS011;11310;51.528;21.204;2022-10-03T08:31:44;4.60;;;1.20;;
22282;SDS011;11310;51.528;21.204;2022-10-03T08:34:45;3.53;;;1.00;;
22282;SDS011;11310;51.528;21.204;2022-10-03T08:37:56;5.50;;;0.95;;
22282;SDS011;11310;51.528;21.204;2022-10-03T08:40:50;1.38;;;0.90;;
22282;SDS011;11310;51.528;21.204;2022-10-03T08:43:39;3.30;;;1.08;;
22282;SDS011;11310;51.528;21.204;2022-10-03T08:50:06;1.95;;;0.80;;
22282;SDS011;11310;51.528;21.204;2022-10-03T08:52:50;1.75;;;1.00;;
22282;SDS011;11310;51.528;21.204;2022-10-03T08:55:54;3.03;;;1.30;;
22282;SDS011;11310;51.528;21.204;2022-10-03T08:58:44;2.58;;;1.00;;
22282;SDS011;11310;51.528;21.204;2022-10-03T09:01:37;2.63;;;1.13;;
22282;SDS011;11310;51.528;21.204;2022-10-03T09:04:49;1.73;;;1.08;;
22282;SDS011;11310;51.528;21.204;2022-10-03T09:10:46;3.20;;;1.35;;
22282;SDS011;11310;51.528;21.204;2022-10-03T09:13:54;7.75;;;1.33;;
22282;SDS011;11310;51.528;21.204;2022-10-03T09:16:50;5.22;;;1.73;;
22282;SDS011;11310;51.528;21.204;2022-10-03T09:22:39;4.80;;;1.20;;
22282;SDS011;11310;51.528;21.204;2022-10-03T09:25:37;3.47;;;1.30;;
22282;SDS011;11310;51.528;21.204;2022-10-03T09:28:32;3.25;;;1.13;;
22282;SDS011;11310;51.528;21.204;2022-10-03T09:31:31;4.80;;;1.20;;
22282;SDS011;11310;51.528;21.204;2022-10-03T09:34:35;4.40;;;1.33;;
22282;SDS011;11310;51.528;21.204;2022-10-03T09:37:41;3.65;;;1.30;;
22282;SDS011;11310;51.528;21.204;2022-10-03T09:40:52;5.78;;;1.35;;
22282;SDS011;11310;51.528;21.204;2022-10-03T09:43:59;3.70;;;1.42;;
22282;SDS011;11310;51.528;21.204;2022-10-03T09:53:16;6.75;;;1.70;;
22282;SDS011;11310;51.528;21.204;2022-10-03T09:56:07;2.58;;;1.45;;
22282;SDS011;11310;51.528;21.204;2022-10-03T09:59:02;3.72;;;1.40;;
22282;SDS011;11310;51.528;21.204;2022-10-03T10:01:46;5.45;;;1.35;;
22282;SDS011;11310;51.528;21.204;2022-10-03T10:13:26;2.55;;;1.55;;
22282;SDS011;11310;51.528;21.204;2022-10-03T10:20:03;8.20;;;1.83;;
22282;SDS011;11310;51.528;21.204;2022-10-03T10:29:21;5.20;;;1.70;;
22282;SDS011;11310;51.528;21.204;2022-10-03T10:57:01;2.75;;;1.50;;
22282;SDS011;11310;51.528;21.204;2022-10-03T11:02:58;4.97;;;1.83;;
22282;SDS011;11310;51.528;21.204;2022-10-03T11:09:09;4.15;;;2.15;;
22282;SDS011;11310;51.528;21.204;2022-10-03T11:15:17;4.60;;;2.17;;
22282;SDS011;11310;51.528;21.204;2022-10-03T11:24:40;3.88;;;1.88;;
22282;SDS011;11310;51.528;21.204;2022-10-03T11:30:51;4.70;;;2.08;;
22282;SDS011;11310;51.528;21.204;2022-10-03T11:37:08;4.63;;;2.45;;
22282;SDS011;11310;51.528;21.204;2022-10-03T11:40:03;6.68;;;2.15;;
22282;SDS011;11310;51.528;21.204;2022-10-03T11:42:53;4.50;;;2.00;;
22282;SDS011;11310;51.528;21.204;2022-10-03T11:45:28;4.90;;;2.08;;
22282;SDS011;11310;51.528;21.204;2022-10-03T11:48:07;4.88;;;2.13;;
22282;SDS011;11310;51.528;21.204;2022-10-03T11:50:50;4.97;;;2.50;;
22282;SDS011;11310;51.528;21.204;2022-10-03T11:53:32;4.32;;;2.45;;
22282;SDS011;11310;51.528;21.204;2022-10-03T11:56:17;4.95;;;2.03;;
22282;SDS011;11310;51.528;21.204;2022-10-03T11:59:02;6.07;;;1.65;;
22282;SDS011;11310;51.528;21.204;2022-10-03T12:01:56;5.38;;;1.95;;
22282;SDS011;11310;51.528;21.204;2022-10-03T12:04:35;5.00;;;1.65;;
22282;SDS011;11310;51.528;21.204;2022-10-03T12:07:17;3.65;;;1.77;;
22282;SDS011;11310;51.528;21.204;2022-10-03T12:10:17;5.57;;;2.70;;
22282;SDS011;11310;51.528;21.204;2022-10-03T12:13:03;3.90;;;1.63;;
22282;SDS011;11310;51.528;21.204;2022-10-03T12:15:41;5.45;;;1.52;;
22282;SDS011;11310;51.528;21.204;2022-10-03T12:18:19;2.60;;;1.42;;
22282;SDS011;11310;51.528;21.204;2022-10-03T12:21:04;3.17;;;1.20;;
22282;SDS011;11310;51.528;21.204;2022-10-03T12:23:44;3.28;;;1.52;;
22282;SDS011;11310;51.528;21.204;2022-10-03T12:26:26;4.43;;;1.40;;
22282;SDS011;11310;51.528;21.204;2022-10-03T12:29:06;4.18;;;0.95;;
22282;SDS011;11310;51.528;21.204;2022-10-03T12:31:39;7.07;;;1.20;;
22282;SDS011;11310;51.528;21.204;2022-10-03T12:34:23;2.28;;;1.00;;
22282;SDS011;11310;51.528;21.204;2022-10-03T12:37:17;1.25;;;0.82;;
22282;SDS011;11310;51.528;21.204;2022-10-03T12:40:16;3.15;;;0.95;;
22282;SDS011;11310;51.528;21.204;2022-10-03T12:42:57;3.13;;;0.98;;
22282;SDS011;11310;51.528;21.204;2022-10-03T12:45:40;1.73;;;0.90;;
22282;SDS011;11310;51.528;21.204;2022-10-03T12:48:28;4.38;;;0.80;;
22282;SDS011;11310;51.528;21.204;2022-10-03T12:51:20;1.35;;;0.80;;
22282;SDS011;11310;51.528;21.204;2022-10-03T12:54:04;5.65;;;0.88;;
22282;SDS011;11310;51.528;21.204;2022-10-03T12:56:44;4.93;;;0.70;;
22282;SDS011;11310;51.528;21.204;2022-10-03T12:59:25;5.10;;;1.05;;
22282;SDS011;11310;51.528;21.204;2022-10-03T13:02:18;1.88;;;0.70;;
22282;SDS011;11310;51.528;21.204;2022-10-03T13:05:11;2.53;;;1.02;;
22282;SDS011;11310;51.528;21.204;2022-10-03T13:08:03;6.30;;;1.13;;
22282;SDS011;11310;51.528;21.204;2022-10-03T13:10:50;4.32;;;0.70;;
22282;SDS011;11310;51.528;21.204;2022-10-03T13:13:26;1.77;;;0.82;;
22282;SDS011;11310;51.528;21.204;2022-10-03T13:16:11;5.28;;;0.98;;
22282;SDS011;11310;51.528;21.204;2022-10-03T13:18:59;2.17;;;0.70;;
22282;SDS011;11310;51.528;21.204;2022-10-03T13:21:54;1.67;;;0.70;;
22282;SDS011;11310;51.528;21.204;2022-10-03T13:24:37;1.15;;;0.80;;
22282;SDS011;11310;51.528;21.204;2022-10-03T13:27:14;3.80;;;0.80;;
22282;SDS011;11310;51.528;21.204;2022-10-03T13:29:56;4.97;;;1.00;;
22282;SDS011;11310;51.528;21.204;2022-10-03T13:32:33;1.02;;;0.60;;
22282;SDS011;11310;51.528;21.204;2022-10-03T13:35:15;2.90;;;0.60;;
22282;SDS011;11310;51.528;21.204;2022-10-03T13:38:24;2.40;;;0.90;;
22282;SDS011;11310;51.528;21.204;2022-10-03T13:41:12;2.83;;;1.08;;
22282;SDS011;11310;51.528;21.204;2022-10-03T13:43:50;9.52;;;1.30;;
22282;SDS011;11310;51.528;21.204;2022-10-03T13:46:42;3.28;;;0.90;;
22282;SDS011;11310;51.528;21.204;2022-10-03T13:49:22;2.80;;;1.00;;
22282;SDS011;11310;51.528;21.204;2022-10-03T13:52:00;3.45;;;0.98;;
22282;SDS011;11310;51.528;21.204;2022-10-03T13:54:45;2.95;;;0.73;;
22282;SDS011;11310;51.528;21.204;2022-10-03T13:57:37;2.55;;;0.85;;
22282;SDS011;11310;51.528;21.204;2022-10-03T14:00:12;3.88;;;0.80;;
22282;SDS011;11310;51.528;21.204;2022-10-03T14:02:50;2.03;;;0.88;;
22282;SDS011;11310;51.528;21.204;2022-10-03T14:05:42;2.78;;;0.73;;
22282;SDS011;11310;51.528;21.204;2022-10-03T14:08:57;3.20;;;0.90;;
22282;SDS011;11310;51.528;21.204;2022-10-03T14:11:40;2.75;;;1.25;;
22282;SDS011;11310;51.528;21.204;2022-10-03T14:14:38;1.73;;;1.10;;
22282;SDS011;11310;51.528;21.204;2022-10-03T14:17:18;1.95;;;0.93;;
22282;SDS011;11310;51.528;21.204;2022-10-03T14:20:08;3.15;;;1.20;;
22282;SDS011;11310;51.528;21.204;2022-10-03T14:22:50;2.72;;;1.48;;
22282;SDS011;11310;51.528;21.204;2022-10-03T14:25:34;4.75;;;1.05;;
22282;SDS011;11310;51.528;21.204;2022-10-03T14:28:09;7.40;;;1.70;;
22282;SDS011;11310;51.528;21.204;2022-10-03T14:30:55;3.83;;;1.30;;
22282;SDS011;11310;51.528;21.204;2022-10-03T14:33:35;3.95;;;0.90;;
22282;SDS011;11310;51.528;21.204;2022-10-03T14:36:16;2.95;;;1.17;;
22282;SDS011;11310;51.528;21.204;2022-10-03T14:39:01;1.77;;;1.00;;
22282;SDS011;11310;51.528;21.204;2022-10-03T14:41:45;7.68;;;1.52;;
22282;SDS011;11310;51.528;21.204;2022-10-03T14:44:34;4.03;;;1.00;;
22282;SDS011;11310;51.528;21.204;2022-10-03T14:47:07;3.05;;;1.23;;
22282;SDS011;11310;51.528;21.204;2022-10-03T14:49:47;6.43;;;1.23;;
22282;SDS011;11310;51.528;21.204;2022-10-03T14:52:27;2.47;;;0.93;;
22282;SDS011;11310;51.528;21.204;2022-10-03T14:55:06;4.65;;;1.40;;
22282;SDS011;11310;51.528;21.204;2022-10-03T14:57:45;3.90;;;1.02;;
22282;SDS011;11310;51.528;21.204;2022-10-03T15:00:39;1.33;;;0.90;;
22282;SDS011;11310;51.528;21.204;2022-10-03T15:03:17;2.28;;;1.10;;
22282;SDS011;11310;51.528;21.204;2022-10-03T15:05:59;3.55;;;1.08;;
22282;SDS011;11310;51.528;21.204;2022-10-03T15:08:31;4.57;;;1.08;;
22282;SDS011;11310;51.528;21.204;2022-10-03T15:11:05;4.22;;;1.50;;
22282;SDS011;11310;51.528;21.204;2022-10-03T15:13:41;2.70;;;1.20;;
22282;SDS011;11310;51.528;21.204;2022-10-03T15:16:15;3.45;;;1.30;;
22282;SDS011;11310;51.528;21.204;2022-10-03T15:18:50;1.42;;;0.85;;
22282;SDS011;11310;51.528;21.204;2022-10-03T15:21:22;2.78;;;1.27;;
22282;SDS011;11310;51.528;21.204;2022-10-03T15:23:54;4.32;;;1.00;;
22282;SDS011;11310;51.528;21.204;2022-10-03T15:26:28;1.88;;;1.13;;
22282;SDS011;11310;51.528;21.204;2022-10-03T15:29:06;2.53;;;1.00;;
22282;SDS011;11310;51.528;21.204;2022-10-03T15:31:46;4.60;;;1.27;;
22282;SDS011;11310;51.528;21.204;2022-10-03T15:34:17;6.30;;;1.17;;
22282;SDS011;11310;51.528;21.204;2022-10-03T15:36:48;2.42;;;1.17;;
22282;SDS011;11310;51.528;21.204;2022-10-03T15:39:25;2.22;;;1.02;;
22282;SDS011;11310;51.528;21.204;2022-10-03T15:42:00;5.95;;;1.38;;
22282;SDS011;11310;51.528;21.204;2022-10-03T15:44:35;3.83;;;1.40;;
22282;SDS011;11310;51.528;21.204;2022-10-03T15:47:07;3.05;;;1.25;;
22282;SDS011;11310;51.528;21.204;2022-10-03T15:49:43;2.38;;;1.30;;
22282;SDS011;11310;51.528;21.204;2022-10-03T15:52:20;2.55;;;1.25;;
22282;SDS011;11310;51.528;21.204;2022-10-03T15:54:55;3.13;;;1.50;;
22282;SDS011;11310;51.528;21.204;2022-10-03T15:57:39;4.40;;;1.30;;
22282;SDS011;11310;51.528;21.204;2022-10-03T16:00:21;4.53;;;1.52;;
22282;SDS011;11310;51.528;21.204;2022-10-03T16:02:55;6.40;;;1.80;;
22282;SDS011;11310;51.528;21.204;2022-10-03T16:05:34;3.53;;;1.67;;
22282;SDS011;11310;51.528;21.204;2022-10-03T16:08:05;2.60;;;1.25;;
22282;SDS011;11310;51.528;21.204;2022-10-03T16:10:42;3.78;;;1.45;;
22282;SDS011;11310;51.528;21.204;2022-10-03T16:13:23;3.35;;;1.38;;
22282;SDS011;11310;51.528;21.204;2022-10-03T16:16:08;2.78;;;1.20;;
22282;SDS011;11310;51.528;21.204;2022-10-03T16:18:46;4.05;;;1.60;;
22282;SDS011;11310;51.528;21.204;2022-10-03T16:21:30;2.00;;;1.20;;
22282;SDS011;11310;51.528;21.204;2022-10-03T16:24:14;1.27;;;0.85;;
22282;SDS011;11310;51.528;21.204;2022-10-03T16:26:51;3.97;;;1.33;;
22282;SDS011;11310;51.528;21.204;2022-10-03T16:29:26;5.32;;;1.35;;
22282;SDS011;11310;51.528;21.204;2022-10-03T16:32:01;2.50;;;1.17;;
22282;SDS011;11310;51.528;21.204;2022-10-03T16:34:32;1.67;;;1.05;;
22282;SDS011;11310;51.528;21.204;2022-10-03T16:37:14;5.65;;;1.60;;
22282;SDS011;11310;51.528;21.204;2022-10-03T16:39:49;3.05;;;1.55;;
22282;SDS011;11310;51.528;21.204;2022-10-03T16:42:22;5.35;;;1.35;;
22282;SDS011;11310;51.528;21.204;2022-10-03T16:44:55;4.65;;;1.50;;
22282;SDS011;11310;51.528;21.204;2022-10-03T16:47:30;3.80;;;1.80;;
22282;SDS011;11310;51.528;21.204;2022-10-03T16:50:03;4.75;;;2.15;;
22282;SDS011;11310;51.528;21.204;2022-10-03T16:52:53;6.75;;;2.70;;
22282;SDS011;11310;51.528;21.204;2022-10-03T16:55:27;4.93;;;2.42;;
22282;SDS011;11310;51.528;21.204;2022-10-03T16:58:02;5.47;;;2.28;;
22282;SDS011;11310;51.528;21.204;2022-10-03T17:00:40;7.55;;;2.30;;
22282;SDS011;11310;51.528;21.204;2022-10-03T17:03:40;6.80;;;2.33;;
22282;SDS011;11310;51.528;21.204;2022-10-03T17:06:13;5.68;;;2.75;;
22282;SDS011;11310;51.528;21.204;2022-10-03T17:08:49;5.95;;;2.70;;
22282;SDS011;11310;51.528;21.204;2022-10-03T17:11:20;5.22;;;2.42;;
22282;SDS011;11310;51.528;21.204;2022-10-03T17:13:52;4.45;;;2.08;;
22282;SDS011;11310;51.528;21.204;2022-10-03T17:16:25;4.90;;;2.00;;
22282;SDS011;11310;51.528;21.204;2022-10-03T17:19:10;3.70;;;1.90;;
22282;SDS011;11310;51.528;21.204;2022-10-03T17:21:47;5.32;;;2.30;;
22282;SDS011;11310;51.528;21.204;2022-10-03T17:24:22;5.15;;;2.20;;
22282;SDS011;11310;51.528;21.204;2022-10-03T17:27:08;5.35;;;1.90;;
22282;SDS011;11310;51.528;21.204;2022-10-03T17:29:45;5.63;;;2.13;;
22282;SDS011;11310;51.528;21.204;2022-10-03T17:32:20;4.63;;;2.20;;
22282;SDS011;11310;51.528;21.204;2022-10-03T17:34:54;5.53;;;2.42;;
22282;SDS011;11310;51.528;21.204;2022-10-03T17:40:53;7.45;;;2.40;;
22282;SDS011;11310;51.528;21.204;2022-10-03T17:43:37;5.82;;;1.90;;
22282;SDS011;11310;51.528;21.204;2022-10-03T17:46:14;5.35;;;2.20;;
22282;SDS011;11310;51.528;21.204;2022-10-03T17:48:50;3.85;;;1.90;;
22282;SDS011;11310;51.528;21.204;2022-10-03T17:51:35;4.45;;;1.92;;
22282;SDS011;11310;51.528;21.204;2022-10-03T17:54:09;7.28;;;1.98;;
22282;SDS011;11310;51.528;21.204;2022-10-03T17:56:43;5.25;;;2.40;;
22282;SDS011;11310;51.528;21.204;2022-10-03T17:59:18;5.00;;;2.05;;
22282;SDS011;11310;51.528;21.204;2022-10-03T18:01:51;4.20;;;2.10;;
22282;SDS011;11310;51.528;21.204;2022-10-03T18:04:26;5.80;;;2.40;;
22282;SDS011;11310;51.528;21.204;2022-10-03T18:07:01;4.60;;;2.10;;
22282;SDS011;11310;51.528;21.204;2022-10-03T18:09:37;5.95;;;2.22;;
22282;SDS011;11310;51.528;21.204;2022-10-03T18:12:25;4.32;;;2.10;;
22282;SDS011;11310;51.528;21.204;2022-10-03T18:18:15;6.63;;;1.90;;
22282;SDS011;11310;51.528;21.204;2022-10-03T18:21:06;5.43;;;2.42;;
22282;SDS011;11310;51.528;21.204;2022-10-03T18:23:47;4.55;;;2.30;;
22282;SDS011;11310;51.528;21.204;2022-10-03T18:26:27;4.93;;;2.15;;
22282;SDS011;11310;51.528;21.204;2022-10-03T18:29:04;5.60;;;2.00;;
22282;SDS011;11310;51.528;21.204;2022-10-03T18:31:49;4.28;;;1.67;;
22282;SDS011;11310;51.528;21.204;2022-10-03T18:34:25;4.82;;;1.95;;
22282;SDS011;11310;51.528;21.204;2022-10-03T18:37:13;7.25;;;2.47;;
22282;SDS011;11310;51.528;21.204;2022-10-03T18:40:11;4.50;;;1.85;;
22282;SDS011;11310;51.528;21.204;2022-10-03T18:42:44;4.32;;;2.38;;
22282;SDS011;11310;51.528;21.204;2022-10-03T18:45:18;7.03;;;2.17;;
22282;SDS011;11310;51.528;21.204;2022-10-03T18:50:22;4.70;;;2.15;;
22282;SDS011;11310;51.528;21.204;2022-10-03T18:52:58;3.20;;;1.70;;
22282;SDS011;11310;51.528;21.204;2022-10-03T18:55:36;7.88;;;2.30;;
22282;SDS011;11310;51.528;21.204;2022-10-03T18:58:13;5.00;;;1.83;;
22282;SDS011;11310;51.528;21.204;2022-10-03T19:00:49;5.45;;;2.30;;
22282;SDS011;11310;51.528;21.204;2022-10-03T19:03:22;5.00;;;2.30;;
22282;SDS011;11310;51.528;21.204;2022-10-03T19:05:58;4.70;;;1.88;;
22282;SDS011;11310;51.528;21.204;2022-10-03T19:08:33;3.13;;;2.00;;